Impacts METAR Board
IDs:

KLGA - New York/La Guardia, NY, US

Updated at: 0800 UTC 19 Jun 2018
Potential Impact None Slight Moderate High
Time 18/20Z 18/21Z 18/22Z 18/23Z 19/00Z 19/01Z 19/02Z 19/03Z 19/04Z 19/05Z 19/06Z 19/07Z 19/08Z
Temp91 90 89 89 91 86 81 81 81 82 79 81 81
Dewpt67 68 68 68 69 71 73 72 70 70 72 72 71
Altim29.85 29.83 29.80 29.78 29.77 29.82 29.82 29.80 29.77 29.75 29.75 29.72 29.71
VIS10 10 10 10 10 9 10 10 10 10 5 10 10
CIG250 250 250 250 250 250 250 250 200 100 60 140 150
CoverBKNBKNBKNBKNOVCOVCBKNBKNOVCOVCOVCOVCOVC
FltCatVFRVFRVFRVFRVFRVFRVFRVFRVFRVFRMVFRVFRVFR
WX-----------TSRA--------RA----
WDir170180180160200260200220220280270260270
WSpd14 11 10 11 12 21 11 8 9 12 11 9 12
WGst21 -- -- -- 20 34 -- -- -- -- 24 20 --
Raw hourly METARs
KLGA 181951Z 17014G21KT 10SM SCT055 BKN250 33/19 A2985 RMK AO2 SLP108 T03280194
KLGA 182051Z 18011KT 10SM SCT055 BKN250 32/20 A2983 RMK AO2 SLP101 T03220200 56027
KLGA 182151Z 18010KT 10SM SCT055 BKN250 32/20 A2980 RMK AO2 SLP091 T03170200
KLGA 182251Z 16011KT 10SM SCT055 BKN250 32/20 A2978 RMK AO2 SLP083 T03170200
KLGA 182351Z 20012G20KT 10SM FEW050 OVC250 33/21 A2977 RMK AO2 LTG DSNT N SLP081 T03280206 10333 20311 56020
KLGA 190051Z COR 26021G34KT 9SM -TSRA SCT050CB OVC250 30/22 A2982 RMK AO2 PK WND 28034/0049 LTG DSNT SW AND W OCNL LTGIC W TS W MOV E RAB42 TSB40 PRESRR SLP097 P0001 T03000217
KLGA 190151Z 20011KT 10SM FEW100 BKN250 27/23 A2982 RMK AO2 PK WND 27026/0052 LTG DSNT SE AND S RAE19 TSE0059B00E22 SLP096 P0004 T02720228
KLGA 190251Z 22008KT 10SM FEW050 FEW150 BKN250 27/22 A2980 RMK AO2 SLP092 60005 T02720222 50010
KLGA 190351Z 22009KT 10SM BKN200 OVC250 27/21 A2977 RMK AO2 SLP080 T02720211
KLGA 190451Z 28012KT 10SM SCT060 BKN100 BKN200 OVC250 28/21 A2975 RMK AO2 SLP074 T02780211 403330233
KLGA 190551Z 27011G24KT 5SM RA FEW035 SCT048 BKN060 OVC250 26/22 A2975 RMK AO2 RAB40 CIG 049 R22 SW SLP074 P0004 60009 T02610222 10328 20261 56018
KLGA 190651Z 26009G20KT 10SM SCT120 OVC140 27/22 A2972 RMK AO2 RAE45 SLP065 P0001 T02720222
KLGA 190751Z 27012KT 10SM FEW055 SCT120 OVC150 27/22 A2971 RMK AO2 SLP060 T02720217



Page loaded:  08:53 UTC  |   01:53 AM Pacific  |   02:53 AM Mountain  |   03:53 AM Central  |   04:53 AM Eastern

 

ADVISORIES

FORECASTS

FORECASTS

OBSERVATIONS

USER TOOLS

ABOUT US